createdAt,value
2018-07-10T00:02:24.765Z,18.03
2018-07-10T00:07:20.887Z,17.98
2018-07-10T00:10:02.704Z,17.77
2018-07-10T00:12:30.764Z,17.70
2018-07-10T00:14:58.900Z,17.68
2018-07-10T00:17:26.972Z,17.86
2018-07-10T00:19:55.032Z,17.92
2018-07-10T00:22:23.103Z,17.99
2018-07-10T00:24:51.193Z,17.97
2018-07-10T00:27:19.272Z,18.07
2018-07-10T00:29:47.348Z,18.01
2018-07-10T00:32:16.324Z,17.90
2018-07-10T00:34:44.405Z,17.86
2018-07-10T00:37:12.468Z,17.98
2018-07-10T00:39:40.560Z,17.88
2018-07-10T00:42:08.652Z,17.84
2018-07-10T00:44:36.727Z,17.84
2018-07-10T00:47:04.802Z,17.92
2018-07-10T00:49:32.886Z,17.98
2018-07-10T00:52:00.938Z,18.05
2018-07-10T00:54:29.031Z,17.88
2018-07-10T00:56:57.102Z,17.81
2018-07-10T00:59:25.185Z,17.82
2018-07-10T01:01:55.435Z,17.95
2018-07-10T01:04:23.632Z,17.91
2018-07-10T01:06:51.707Z,17.94
2018-07-10T01:09:19.787Z,17.97
2018-07-10T01:11:47.864Z,17.83
2018-07-10T01:14:15.920Z,17.94
2018-07-10T01:16:43.983Z,17.84
2018-07-10T01:19:14.636Z,17.84
2018-07-10T01:21:44.047Z,17.72
2018-07-10T01:24:12.111Z,17.65
2018-07-10T01:26:41.523Z,17.50
2018-07-10T01:29:19.457Z,17.54
2018-07-10T01:31:55.192Z,17.37
2018-07-10T01:34:23.699Z,17.32
2018-07-10T01:36:53.089Z,17.30
2018-07-10T01:39:21.164Z,17.26
2018-07-10T01:41:49.296Z,17.26
2018-07-10T01:44:18.327Z,17.39
2018-07-10T01:46:46.389Z,17.38
2018-07-10T01:49:14.555Z,17.22
2018-07-10T01:51:42.650Z,17.19
2018-07-10T01:54:10.720Z,17.13
2018-07-10T01:56:38.882Z,17.12
2018-07-10T01:59:06.872Z,16.99
2018-07-10T02:01:35.016Z,17.17
2018-07-10T02:04:03.102Z,17.31
2018-07-10T02:06:31.401Z,17.24
2018-07-10T02:08:59.852Z,17.20
2018-07-10T02:11:27.912Z,17.15
2018-07-10T02:13:55.994Z,17.06
2018-07-10T02:16:24.047Z,17.03
2018-07-10T02:18:52.267Z,17.03
2018-07-10T02:21:20.492Z,17.01
2018-07-10T02:23:48.526Z,16.92
2018-07-10T02:26:22.363Z,16.89
2018-07-10T02:28:51.851Z,16.87
2018-07-10T02:31:20.612Z,16.82
2018-07-10T02:33:48.880Z,16.94
2018-07-10T02:36:18.073Z,17.01
2018-07-10T02:38:48.443Z,17.04
2018-07-10T02:41:21.688Z,17.04
2018-07-10T02:43:56.004Z,17.00
2018-07-10T02:46:25.146Z,16.98
2018-07-10T02:48:54.505Z,17.02
2018-07-10T02:51:22.619Z,17.12
2018-07-10T02:53:50.711Z,17.24
2018-07-10T02:56:20.641Z,17.30
2018-07-10T02:58:49.825Z,17.18
2018-07-10T03:01:18.325Z,17.05
2018-07-10T03:03:46.385Z,16.90
2018-07-10T03:06:14.731Z,16.75
2018-07-10T03:08:43.088Z,16.76
2018-07-10T03:11:13.129Z,16.79
2018-07-10T03:13:41.527Z,16.70
2018-07-10T03:16:09.600Z,16.76
2018-07-10T03:18:37.672Z,16.92
2018-07-10T03:21:05.731Z,17.13
2018-07-10T03:23:33.803Z,17.24
2018-07-10T03:26:02.063Z,17.04
2018-07-10T03:28:30.190Z,16.97
2018-07-10T03:30:58.542Z,16.95
2018-07-10T03:33:26.614Z,16.89
2018-07-10T03:35:54.680Z,16.77
2018-07-10T03:38:23.484Z,16.80
2018-07-10T03:40:52.188Z,16.68
2018-07-10T03:43:20.254Z,16.72
2018-07-10T03:45:49.167Z,16.78
2018-07-10T03:48:17.573Z,16.77
2018-07-10T03:50:45.643Z,16.99
2018-07-10T03:53:13.703Z,17.06
2018-07-10T03:55:41.767Z,16.99
2018-07-10T03:58:11.043Z,17.08
2018-07-10T04:00:39.382Z,17.00
2018-07-10T04:03:07.672Z,17.18
2018-07-10T04:05:35.765Z,17.29
2018-07-10T04:08:05.631Z,17.38
2018-07-10T04:10:38.212Z,17.37
2018-07-10T04:13:22.275Z,17.41
2018-07-10T04:15:53.703Z,17.38
2018-07-10T04:18:22.872Z,17.36
2018-07-10T04:20:55.884Z,17.53
2018-07-10T04:23:26.108Z,17.69
2018-07-10T04:25:55.355Z,17.68
2018-07-10T04:28:28.917Z,17.65
2018-07-10T04:31:06.815Z,17.70
2018-07-10T04:33:34.890Z,17.60
2018-07-10T04:38:44.000Z,17.68
2018-07-10T04:41:19.284Z,17.90
2018-07-10T04:43:53.999Z,18.03
2018-07-10T04:46:25.777Z,18.15
2018-07-10T04:49:07.478Z,18.21
2018-07-10T04:51:39.970Z,18.11
2018-07-10T04:55:14.051Z,17.94
2018-07-10T04:57:55.208Z,18.01
2018-07-10T05:00:23.303Z,18.10
2018-07-10T05:02:52.196Z,18.03
2018-07-10T05:05:20.286Z,18.11
2018-07-10T05:07:48.384Z,18.28
2018-07-10T05:10:18.124Z,18.16
2018-07-10T05:12:46.403Z,18.33
2018-07-10T05:15:14.808Z,18.40
2018-07-10T05:17:44.111Z,18.38
2018-07-10T05:20:12.255Z,18.54
2018-07-10T05:22:42.704Z,18.69
2018-07-10T05:25:10.810Z,18.65
2018-07-10T05:27:38.884Z,18.83
2018-07-10T05:30:06.984Z,18.79
2018-07-10T05:32:37.924Z,18.99
2018-07-10T05:35:05.981Z,18.98
2018-07-10T05:37:38.621Z,19.03
2018-07-10T05:40:10.077Z,19.02
2018-07-10T05:42:48.994Z,18.85
2018-07-10T05:45:20.664Z,18.97
2018-07-10T05:47:53.952Z,19.05
2018-07-10T05:50:22.052Z,19.06
2018-07-10T05:52:50.349Z,19.00
2018-07-10T05:55:23.880Z,19.03
2018-07-10T05:57:52.589Z,19.01
2018-07-10T06:00:21.779Z,18.87
2018-07-10T06:02:49.855Z,18.88
2018-07-10T06:05:17.944Z,18.94
2018-07-10T06:07:48.081Z,18.83
2018-07-10T06:10:16.163Z,18.80
2018-07-10T06:12:44.352Z,18.71
2018-07-10T06:15:14.330Z,18.76
2018-07-10T06:17:42.775Z,18.69
2018-07-10T06:20:10.853Z,18.45
2018-07-10T06:22:39.228Z,18.49
2018-07-10T06:28:09.711Z,18.46
2018-07-10T06:30:39.435Z,18.50
2018-07-10T06:33:25.221Z,18.36
2018-07-10T06:36:07.214Z,18.30
2018-07-10T06:38:39.529Z,18.42
2018-07-10T06:41:08.113Z,18.33
2018-07-10T06:43:47.610Z,18.30
2018-07-10T06:46:16.268Z,18.43
2018-07-10T06:48:45.788Z,18.27
2018-07-10T06:51:16.864Z,18.39
2018-07-10T06:53:47.060Z,18.37
2018-07-10T06:56:24.191Z,18.32
2018-07-10T06:58:52.264Z,18.37
2018-07-10T07:01:20.409Z,18.39
2018-07-10T07:03:48.460Z,18.36
2018-07-10T07:06:16.536Z,18.40
2018-07-10T07:08:44.592Z,18.54
2018-07-10T07:11:12.670Z,18.70
2018-07-10T07:13:40.748Z,18.84
2018-07-10T07:16:08.819Z,18.88
2018-07-10T07:18:36.903Z,18.92
2018-07-10T07:21:04.990Z,19.00
2018-07-10T07:23:33.600Z,19.29
2018-07-10T07:26:01.696Z,19.30
2018-07-10T07:28:30.909Z,19.61
2018-07-10T07:30:59.075Z,19.71
2018-07-10T07:33:27.139Z,19.74
2018-07-10T07:35:55.540Z,20.11
2018-07-10T07:38:23.635Z,20.23
2018-07-10T07:40:52.506Z,20.43
2018-07-10T07:43:20.731Z,20.90
2018-07-10T07:48:24.559Z,21.63
2018-07-10T07:50:52.676Z,21.95
2018-07-10T07:53:20.767Z,21.36
2018-07-10T07:55:49.092Z,21.72
2018-07-10T07:58:17.169Z,21.96
2018-07-10T08:00:45.234Z,21.97
2018-07-10T08:03:13.381Z,21.50
2018-07-10T08:05:41.455Z,21.35
2018-07-10T08:08:09.548Z,21.43
2018-07-10T08:10:37.633Z,21.86
2018-07-10T08:13:05.781Z,22.21
2018-07-10T08:15:37.292Z,22.32
2018-07-10T08:18:05.979Z,22.10
2018-07-10T08:20:34.570Z,22.01
2018-07-10T08:23:03.362Z,22.12
2018-07-10T08:25:31.667Z,22.07
2018-07-10T08:28:00.152Z,20.39
2018-07-10T08:30:28.240Z,19.18
2018-07-10T08:32:56.316Z,19.03
2018-07-10T08:35:24.407Z,18.94
2018-07-10T08:37:52.953Z,19.00
2018-07-10T08:40:21.009Z,18.94
2018-07-10T08:42:49.092Z,18.87
2018-07-10T08:45:17.995Z,19.28
2018-07-10T08:47:46.073Z,19.25
2018-07-10T08:50:14.359Z,19.55
2018-07-10T08:52:42.444Z,19.51
2018-07-10T08:55:10.569Z,19.25
2018-07-10T08:57:38.675Z,19.22
2018-07-10T09:00:07.227Z,19.30
2018-07-10T09:02:35.310Z,19.39
2018-07-10T09:05:03.393Z,19.46
2018-07-10T09:07:31.471Z,19.26
2018-07-10T09:09:59.556Z,19.42
2018-07-10T09:12:27.656Z,19.34
2018-07-10T09:14:55.730Z,19.26
2018-07-10T09:17:23.800Z,19.36
2018-07-10T09:19:51.857Z,19.23
2018-07-10T09:22:19.975Z,19.55
2018-07-10T09:24:54.801Z,19.88
2018-07-10T09:27:23.643Z,20.17
2018-07-10T09:29:51.871Z,19.90
2018-07-10T09:32:26.523Z,19.99
2018-07-10T09:34:56.564Z,20.00
2018-07-10T09:37:30.013Z,19.92
2018-07-10T09:43:06.012Z,19.69
2018-07-10T09:45:36.437Z,19.82
2018-07-10T09:48:05.693Z,19.94
2018-07-10T09:50:33.817Z,20.20
2018-07-10T09:53:02.819Z,20.50
2018-07-10T09:55:31.145Z,20.31
2018-07-10T09:58:00.767Z,20.27
2018-07-10T10:00:34.680Z,20.43
2018-07-10T10:03:03.569Z,19.73
2018-07-10T10:05:40.844Z,19.75
2018-07-10T10:08:09.177Z,20.01
2018-07-10T10:10:37.781Z,19.67
2018-07-10T10:13:06.131Z,19.37
2018-07-10T10:15:35.349Z,19.75
2018-07-10T10:18:06.301Z,19.52
2018-07-10T10:20:37.280Z,19.49
2018-07-10T10:23:06.002Z,18.90
2018-07-10T10:25:37.375Z,18.91
2018-07-10T10:28:08.185Z,18.87
2018-07-10T10:30:37.932Z,18.68
2018-07-10T10:33:06.633Z,18.45
2018-07-10T10:35:35.191Z,18.40
2018-07-10T10:38:04.312Z,18.26
2018-07-10T10:40:38.393Z,17.92
2018-07-10T10:43:10.604Z,17.78
2018-07-10T10:45:41.130Z,17.79
2018-07-10T10:48:10.400Z,17.98
2018-07-10T10:50:39.984Z,17.92
2018-07-10T10:53:09.068Z,18.27
2018-07-10T10:55:37.268Z,18.55
2018-07-10T10:58:06.112Z,18.80
2018-07-10T11:00:35.592Z,18.77
2018-07-10T11:03:04.134Z,18.96
2018-07-10T11:05:33.757Z,19.13
2018-07-10T11:08:02.365Z,19.32
2018-07-10T11:10:30.985Z,19.50
2018-07-10T11:12:59.337Z,19.98
2018-07-10T11:15:27.536Z,20.12
2018-07-10T11:18:02.235Z,20.70
2018-07-10T11:20:44.189Z,20.90
2018-07-10T11:23:17.778Z,21.12
2018-07-10T11:25:47.196Z,21.42
2018-07-10T11:28:15.288Z,21.36
2018-07-10T11:30:43.396Z,20.91
2018-07-10T11:33:12.196Z,19.87
2018-07-10T11:35:41.384Z,20.07
2018-07-10T11:38:11.720Z,19.96
2018-07-10T11:40:42.720Z,19.77
2018-07-10T11:43:12.535Z,19.95
2018-07-10T11:45:42.123Z,20.18
2018-07-10T11:48:10.873Z,20.46
2018-07-10T11:50:39.268Z,20.71
2018-07-10T11:53:07.346Z,20.79
2018-07-10T11:55:36.541Z,20.71
2018-07-10T11:58:07.440Z,20.87
2018-07-10T12:00:35.645Z,21.13
2018-07-10T12:03:05.532Z,20.50
2018-07-10T12:05:35.095Z,20.01
2018-07-10T12:08:03.202Z,20.10
2018-07-10T12:10:32.478Z,20.43
2018-07-10T12:13:00.669Z,20.69
2018-07-10T12:15:28.751Z,21.17
2018-07-10T12:17:57.884Z,21.51
2018-07-10T12:20:30.859Z,21.35
2018-07-10T12:23:00.070Z,21.37
2018-07-10T12:25:31.013Z,21.14
2018-07-10T12:27:59.166Z,21.21
2018-07-10T12:30:28.128Z,21.36
2018-07-10T12:32:56.308Z,21.24
2018-07-10T12:35:24.383Z,21.66
2018-07-10T12:37:52.596Z,21.64
2018-07-10T12:40:20.702Z,20.99
2018-07-10T12:42:48.812Z,21.14
2018-07-10T12:45:16.896Z,21.28
2018-07-10T12:47:44.976Z,20.82
2018-07-10T12:50:13.605Z,20.97
2018-07-10T12:52:42.662Z,20.83
2018-07-10T12:55:11.105Z,21.13
2018-07-10T12:57:42.416Z,21.21
2018-07-10T13:00:10.608Z,21.14
2018-07-10T13:02:43.648Z,20.73
2018-07-10T13:05:13.197Z,20.82
2018-07-10T13:07:41.467Z,21.29
2018-07-10T13:10:09.575Z,21.18
2018-07-10T13:12:37.885Z,21.64
2018-07-10T13:15:06.093Z,21.76
2018-07-10T13:17:35.510Z,21.84
2018-07-10T13:20:05.042Z,20.89
2018-07-10T13:22:33.148Z,21.49
2018-07-10T13:25:01.820Z,21.98
2018-07-10T13:27:29.916Z,22.26
2018-07-10T18:05:57.838Z,20.33
2018-07-10T18:08:26.280Z,20.28
2018-07-10T18:10:55.449Z,20.21
2018-07-10T18:13:23.604Z,19.97
2018-07-10T18:15:52.052Z,19.96
2018-07-10T18:27:07.158Z,19.64
2018-07-10T18:29:35.408Z,19.58
2018-07-10T18:32:03.597Z,19.57
2018-07-10T18:34:31.734Z,19.61
2018-07-10T18:36:59.848Z,19.76
2018-07-10T18:39:28.111Z,19.70
2018-07-10T18:41:57.352Z,19.73
2018-07-10T18:44:25.840Z,19.68
2018-07-10T18:46:53.992Z,19.61
2018-07-10T18:49:22.325Z,19.47
2018-07-10T18:51:50.548Z,19.37
2018-07-10T18:54:28.823Z,19.34
2018-07-10T18:56:58.037Z,19.10
2018-07-10T18:59:29.790Z,19.05
2018-07-10T19:02:01.301Z,19.05
2018-07-10T19:05:04.708Z,19.05
2018-07-10T19:07:34.362Z,18.94
2018-07-10T19:10:02.874Z,18.77
2018-07-10T19:12:30.968Z,18.59
2018-07-10T19:14:59.119Z,18.56
2018-07-10T19:17:30.612Z,18.66
2018-07-10T19:20:02.144Z,18.64
2018-07-10T19:22:37.212Z,18.62
2018-07-10T19:25:06.235Z,18.36
2018-07-10T19:27:34.317Z,18.32
2018-07-10T19:30:07.257Z,18.24
2018-07-10T19:32:35.735Z,18.15
2018-07-10T19:35:03.800Z,18.09
2018-07-10T19:37:33.743Z,18.05
2018-07-10T19:40:01.988Z,17.89
2018-07-10T19:42:31.765Z,17.77
2018-07-10T19:45:01.857Z,17.96
2018-07-10T19:47:31.908Z,17.77
2018-07-10T19:50:08.011Z,17.55
2018-07-10T19:52:36.242Z,17.51
2018-07-10T19:55:04.416Z,17.39
2018-07-10T19:57:48.588Z,17.21
2018-07-10T20:00:17.146Z,17.04
2018-07-10T20:02:47.200Z,16.89
2018-07-10T20:05:16.624Z,16.75
2018-07-10T20:07:50.836Z,16.68
2018-07-10T20:10:39.392Z,16.57
2018-07-10T20:13:10.879Z,16.57
2018-07-10T20:15:49.828Z,16.70
2018-07-10T20:18:49.455Z,16.59
2018-07-10T20:21:26.345Z,16.47
2018-07-10T20:24:05.636Z,16.55
2018-07-10T20:26:42.033Z,16.41
2018-07-10T20:29:18.693Z,16.32
2018-07-10T20:32:02.355Z,16.24
2018-07-10T20:34:44.316Z,16.31
2018-07-10T20:37:27.888Z,16.35
2018-07-10T20:39:57.511Z,16.14
2018-07-10T20:42:31.849Z,16.14
2018-07-10T20:45:06.240Z,16.11
2018-07-10T20:47:44.803Z,15.95
2018-07-10T20:50:18.308Z,15.75
2018-07-10T20:52:52.792Z,15.68
2018-07-10T20:55:22.024Z,15.54
2018-07-10T20:58:00.334Z,15.43
2018-07-10T21:00:31.384Z,15.40
2018-07-10T21:03:16.517Z,15.43
2018-07-10T21:05:48.462Z,15.44
2018-07-10T21:08:29.864Z,15.44
2018-07-10T21:11:05.749Z,15.46
2018-07-10T21:13:43.656Z,15.47
2018-07-10T21:16:25.692Z,15.38
2018-07-10T21:19:02.634Z,15.49
2018-07-10T21:22:00.544Z,15.23
2018-07-10T21:24:37.441Z,15.16
2018-07-10T21:27:13.285Z,14.97
2018-07-10T21:29:49.018Z,14.97
2018-07-10T21:34:36.266Z,14.93
2018-07-10T21:37:13.845Z,14.94
2018-07-10T21:40:54.637Z,14.92
2018-07-10T21:43:32.815Z,15.06
2018-07-10T21:46:45.376Z,15.03
2018-07-10T21:49:51.798Z,14.76
2018-07-10T21:52:20.446Z,14.79
2018-07-10T21:54:49.132Z,14.61
2018-07-10T21:57:19.861Z,14.48
2018-07-10T22:02:43.145Z,14.41
2018-07-10T22:05:11.884Z,14.47
2018-07-10T22:07:40.557Z,14.58
2018-07-10T22:10:09.611Z,14.38
2018-07-10T22:12:43.169Z,14.27
2018-07-10T22:15:12.181Z,14.22
2018-07-10T22:17:41.279Z,14.13
2018-07-10T22:20:09.857Z,14.15
2018-07-10T22:22:38.446Z,14.19
2018-07-10T22:25:08.846Z,14.10
2018-07-10T22:27:40.500Z,13.92
2018-07-10T22:30:17.097Z,13.98
2018-07-10T22:32:51.734Z,13.91
2018-07-10T22:35:20.347Z,14.01
2018-07-10T22:37:49.032Z,14.03
2018-07-10T22:40:18.595Z,14.06
2018-07-10T22:42:47.292Z,14.11
2018-07-10T22:45:17.097Z,14.20
2018-07-10T22:47:45.561Z,14.29
2018-07-10T22:50:17.885Z,14.23
2018-07-10T22:52:54.897Z,14.32
2018-07-10T22:55:28.745Z,14.36
2018-07-10T22:58:05.467Z,14.40
2018-07-10T23:00:36.057Z,14.39
2018-07-10T23:05:56.901Z,14.44
2018-07-10T23:08:35.201Z,14.30
2018-07-10T23:11:04.671Z,14.14
2018-07-10T23:13:34.220Z,14.23
2018-07-10T23:16:02.922Z,14.43
2018-07-10T23:18:31.480Z,14.39
2018-07-10T23:21:00.136Z,14.21
2018-07-10T23:23:28.591Z,14.12
2018-07-10T23:25:57.357Z,14.30
2018-07-10T23:28:27.267Z,14.30
2018-07-10T23:30:57.779Z,14.15
2018-07-10T23:33:26.798Z,14.03
2018-07-10T23:35:59.114Z,13.97
2018-07-10T23:38:38.989Z,13.71
2018-07-10T23:41:17.778Z,13.67
2018-07-10T23:43:47.961Z,13.74
2018-07-10T23:46:52.030Z,13.93
2018-07-10T23:49:20.889Z,14.13
2018-07-10T23:52:00.707Z,14.24
2018-07-10T23:54:29.196Z,14.32
2018-07-10T23:56:58.298Z,14.19
2018-07-10T23:59:26.698Z,14.27
